This is the latest recevied weather packets stored in our database for station/object HG5CJW-10. If no packets are shown the sender has not sent any weather packets the latest 10 day(s).
| Time | Temp. | Humidity | Pressure | Rain* | Wind** | Luminosity | Snow |
|---|---|---|---|---|---|---|---|
| 1788710789 | 23.89° C | 30% | 1042.6 hPa | - | - | - | - |
| 1788709889 | 23.89° C | 30% | 1042.8 hPa | - | - | - | - |
| 1788708989 | 24.44° C | 29% | 1042.5 hPa | - | - | - | - |
| 1788708089 | 24.44° C | 29% | 1042.5 hPa | - | - | - | - |
| 1788707189 | 24.44° C | 29% | 1042.5 hPa | - | - | - | - |
| 1788706289 | 24.44° C | 29% | 1042.5 hPa | - | - | - | - |
| 1788705389 | 24.44° C | 29% | 1042.5 hPa | - | - | - | - |
| 1788704489 | 24.44° C | 29% | 1042.3 hPa | - | - | - | - |
| 1788703589 | 25° C | 29% | 1042.3 hPa | - | - | - | - |
| 1788701789 | 24.44° C | 29% | 1042 hPa | - | - | - | - |
| 1788692782 | 23.33° C | 34% | 1042.7 hPa | - | - | - | - |
| 1788687377 | 21.67° C | 37% | 1042.7 hPa | - | - | - | - |
| 1788686477 | 21.11° C | 38% | 1042.8 hPa | - | - | - | - |
| 1788685576 | 20.56° C | 39% | 1042.3 hPa | - | - | - | - |
| 1788684676 | 20.56° C | 41% | 1042.8 hPa | - | - | - | - |
| 1788683776 | 20° C | 41% | 1042.8 hPa | - | - | - | - |
| 1788682876 | 19.44° C | 43% | 1042.7 hPa | - | - | - | - |
| 1788681976 | 18.33° C | 48% | 1042.6 hPa | - | - | - | - |
| 1788681076 | 17.78° C | 49% | 1042.5 hPa | - | - | - | - |
| 1788680176 | 17.78° C | 50% | 1042.4 hPa | - | - | - | - |
| 1788679276 | 17.22° C | 52% | 1042.3 hPa | - | - | - | - |
| 1788678376 | 16.67° C | 54% | 1042.2 hPa | - | - | - | - |
| 1788677476 | 16.67° C | 58% | 1042.1 hPa | - | - | - | - |
| 1788676576 | 16.67° C | 60% | 1042 hPa | - | - | - | - |
| 1788675676 | 16.67° C | 62% | 1041.9 hPa | - | - | - | - |
* Rain since midnight (hover to see other rain measurements)
** Current wind speed in m/s (hover to see current wind gust speed)